sensor_id;sensor_type;location;lat;lon;timestamp;P1;durP1;ratioP1;P2;durP2;ratioP2
75760;SDS011;64373;46.136;8.830;2023-11-18T00:01:44;0.00;;;0.00;;
75760;SDS011;64373;46.136;8.830;2023-11-18T00:04:10;0.10;;;0.10;;
75760;SDS011;64373;46.136;8.830;2023-11-18T00:06:44;0.10;;;0.10;;
75760;SDS011;64373;46.136;8.830;2023-11-18T00:09:10;0.43;;;0.08;;
75760;SDS011;64373;46.136;8.830;2023-11-18T00:11:40;0.05;;;0.00;;
75760;SDS011;64373;46.136;8.830;2023-11-18T00:14:06;0.00;;;0.00;;
75760;SDS011;64373;46.136;8.830;2023-11-18T00:16:32;0.10;;;0.00;;
75760;SDS011;64373;46.136;8.830;2023-11-18T00:18:59;0.00;;;0.00;;
75760;SDS011;64373;46.136;8.830;2023-11-18T00:21:26;0.30;;;0.00;;
75760;SDS011;64373;46.136;8.830;2023-11-18T00:23:53;0.00;;;0.00;;
75760;SDS011;64373;46.136;8.830;2023-11-18T00:26:20;0.35;;;0.00;;
75760;SDS011;64373;46.136;8.830;2023-11-18T00:28:46;0.00;;;0.00;;
75760;SDS011;64373;46.136;8.830;2023-11-18T00:31:13;0.00;;;0.00;;
75760;SDS011;64373;46.136;8.830;2023-11-18T00:33:39;0.00;;;0.00;;
75760;SDS011;64373;46.136;8.830;2023-11-18T00:36:05;0.00;;;0.00;;
75760;SDS011;64373;46.136;8.830;2023-11-18T00:38:32;0.25;;;0.10;;
75760;SDS011;64373;46.136;8.830;2023-11-18T00:40:57;0.00;;;0.00;;
75760;SDS011;64373;46.136;8.830;2023-11-18T00:43:23;0.00;;;0.00;;
75760;SDS011;64373;46.136;8.830;2023-11-18T00:45:49;0.05;;;0.00;;
75760;SDS011;64373;46.136;8.830;2023-11-18T00:48:14;0.00;;;0.00;;
75760;SDS011;64373;46.136;8.830;2023-11-18T00:50:40;0.00;;;0.00;;
75760;SDS011;64373;46.136;8.830;2023-11-18T00:53:06;0.03;;;0.00;;
75760;SDS011;64373;46.136;8.830;2023-11-18T00:55:31;0.05;;;0.00;;
75760;SDS011;64373;46.136;8.830;2023-11-18T00:57:57;0.73;;;0.00;;
75760;SDS011;64373;46.136;8.830;2023-11-18T01:00:23;0.10;;;0.10;;
75760;SDS011;64373;46.136;8.830;2023-11-18T01:02:52;0.20;;;0.00;;
75760;SDS011;64373;46.136;8.830;2023-11-18T01:05:19;0.15;;;0.00;;
75760;SDS011;64373;46.136;8.830;2023-11-18T01:07:45;1.27;;;0.08;;
75760;SDS011;64373;46.136;8.830;2023-11-18T01:10:11;0.00;;;0.00;;
75760;SDS011;64373;46.136;8.830;2023-11-18T01:12:38;0.08;;;0.00;;
75760;SDS011;64373;46.136;8.830;2023-11-18T01:15:05;0.10;;;0.10;;
75760;SDS011;64373;46.136;8.830;2023-11-18T01:17:32;0.63;;;0.20;;
75760;SDS011;64373;46.136;8.830;2023-11-18T01:19:58;0.88;;;0.45;;
75760;SDS011;64373;46.136;8.830;2023-11-18T01:22:24;0.40;;;0.20;;
75760;SDS011;64373;46.136;8.830;2023-11-18T01:24:50;0.35;;;0.20;;
75760;SDS011;64373;46.136;8.830;2023-11-18T01:27:18;0.20;;;0.20;;
75760;SDS011;64373;46.136;8.830;2023-11-18T01:29:45;0.03;;;0.00;;
75760;SDS011;64373;46.136;8.830;2023-11-18T01:32:12;0.00;;;0.00;;
75760;SDS011;64373;46.136;8.830;2023-11-18T01:34:39;0.22;;;0.10;;
75760;SDS011;64373;46.136;8.830;2023-11-18T01:37:05;0.55;;;0.10;;
75760;SDS011;64373;46.136;8.830;2023-11-18T01:39:35;0.00;;;0.00;;
75760;SDS011;64373;46.136;8.830;2023-11-18T01:42:04;0.10;;;0.10;;
75760;SDS011;64373;46.136;8.830;2023-11-18T01:44:30;0.80;;;0.17;;
75760;SDS011;64373;46.136;8.830;2023-11-18T01:46:56;0.20;;;0.00;;
75760;SDS011;64373;46.136;8.830;2023-11-18T01:49:26;0.00;;;0.00;;
75760;SDS011;64373;46.136;8.830;2023-11-18T01:51:55;0.10;;;0.10;;
75760;SDS011;64373;46.136;8.830;2023-11-18T01:54:21;0.00;;;0.00;;
75760;SDS011;64373;46.136;8.830;2023-11-18T01:56:49;0.00;;;0.00;;
75760;SDS011;64373;46.136;8.830;2023-11-18T01:59:14;0.08;;;0.00;;
75760;SDS011;64373;46.136;8.830;2023-11-18T02:01:47;0.08;;;0.03;;
75760;SDS011;64373;46.136;8.830;2023-11-18T02:04:15;0.20;;;0.00;;
75760;SDS011;64373;46.136;8.830;2023-11-18T02:06:42;0.10;;;0.00;;
75760;SDS011;64373;46.136;8.830;2023-11-18T02:09:07;0.17;;;0.10;;
75760;SDS011;64373;46.136;8.830;2023-11-18T02:11:37;0.00;;;0.00;;
75760;SDS011;64373;46.136;8.830;2023-11-18T02:14:07;0.10;;;0.00;;
75760;SDS011;64373;46.136;8.830;2023-11-18T02:16:39;0.00;;;0.00;;
75760;SDS011;64373;46.136;8.830;2023-11-18T02:19:09;0.20;;;0.10;;
75760;SDS011;64373;46.136;8.830;2023-11-18T02:21:46;0.00;;;0.00;;
75760;SDS011;64373;46.136;8.830;2023-11-18T02:27:09;0.38;;;0.20;;
75760;SDS011;64373;46.136;8.830;2023-11-18T02:29:42;0.20;;;0.10;;
75760;SDS011;64373;46.136;8.830;2023-11-18T02:34:53;0.10;;;0.10;;
75760;SDS011;64373;46.136;8.830;2023-11-18T02:37:44;0.20;;;0.10;;
75760;SDS011;64373;46.136;8.830;2023-11-18T02:40:14;0.43;;;0.20;;
75760;SDS011;64373;46.136;8.830;2023-11-18T02:42:43;0.43;;;0.15;;
75760;SDS011;64373;46.136;8.830;2023-11-18T02:45:10;0.10;;;0.10;;
75760;SDS011;64373;46.136;8.830;2023-11-18T02:47:41;0.20;;;0.10;;
75760;SDS011;64373;46.136;8.830;2023-11-18T02:50:10;0.00;;;0.00;;
75760;SDS011;64373;46.136;8.830;2023-11-18T02:52:36;0.08;;;0.00;;
75760;SDS011;64373;46.136;8.830;2023-11-18T02:55:04;0.00;;;0.00;;
75760;SDS011;64373;46.136;8.830;2023-11-18T02:57:32;0.00;;;0.00;;
75760;SDS011;64373;46.136;8.830;2023-11-18T02:59:58;0.00;;;0.00;;
75760;SDS011;64373;46.136;8.830;2023-11-18T03:02:28;0.10;;;0.03;;
75760;SDS011;64373;46.136;8.830;2023-11-18T03:04:56;0.00;;;0.00;;
75760;SDS011;64373;46.136;8.830;2023-11-18T03:07:25;0.00;;;0.00;;
75760;SDS011;64373;46.136;8.830;2023-11-18T03:09:54;0.00;;;0.00;;
75760;SDS011;64373;46.136;8.830;2023-11-18T03:14:52;0.00;;;0.00;;
75760;SDS011;64373;46.136;8.830;2023-11-18T03:17:18;0.00;;;0.00;;
75760;SDS011;64373;46.136;8.830;2023-11-18T03:19:45;0.25;;;0.10;;
75760;SDS011;64373;46.136;8.830;2023-11-18T03:22:11;0.05;;;0.00;;
75760;SDS011;64373;46.136;8.830;2023-11-18T03:24:38;0.35;;;0.08;;
75760;SDS011;64373;46.136;8.830;2023-11-18T03:27:04;0.00;;;0.00;;
75760;SDS011;64373;46.136;8.830;2023-11-18T03:29:30;0.10;;;0.00;;
75760;SDS011;64373;46.136;8.830;2023-11-18T03:31:55;0.00;;;0.00;;
75760;SDS011;64373;46.136;8.830;2023-11-18T03:34:22;0.00;;;0.00;;
75760;SDS011;64373;46.136;8.830;2023-11-18T03:36:48;0.00;;;0.00;;
75760;SDS011;64373;46.136;8.830;2023-11-18T03:39:13;0.03;;;0.00;;
75760;SDS011;64373;46.136;8.830;2023-11-18T03:41:39;0.00;;;0.00;;
75760;SDS011;64373;46.136;8.830;2023-11-18T03:44:09;0.00;;;0.00;;
75760;SDS011;64373;46.136;8.830;2023-11-18T03:46:37;0.00;;;0.00;;
75760;SDS011;64373;46.136;8.830;2023-11-18T03:49:03;0.10;;;0.00;;
75760;SDS011;64373;46.136;8.830;2023-11-18T03:51:29;0.00;;;0.00;;
75760;SDS011;64373;46.136;8.830;2023-11-18T03:53:55;0.00;;;0.00;;
75760;SDS011;64373;46.136;8.830;2023-11-18T03:56:21;0.00;;;0.00;;
75760;SDS011;64373;46.136;8.830;2023-11-18T03:58:46;0.00;;;0.00;;
75760;SDS011;64373;46.136;8.830;2023-11-18T04:01:22;0.00;;;0.00;;
75760;SDS011;64373;46.136;8.830;2023-11-18T04:03:50;0.30;;;0.10;;
75760;SDS011;64373;46.136;8.830;2023-11-18T04:06:16;0.10;;;0.10;;
75760;SDS011;64373;46.136;8.830;2023-11-18T04:08:45;0.28;;;0.20;;
75760;SDS011;64373;46.136;8.830;2023-11-18T04:11:12;0.20;;;0.20;;
75760;SDS011;64373;46.136;8.830;2023-11-18T04:13:39;0.20;;;0.10;;
75760;SDS011;64373;46.136;8.830;2023-11-18T04:16:09;0.50;;;0.10;;
75760;SDS011;64373;46.136;8.830;2023-11-18T04:18:43;0.17;;;0.10;;
75760;SDS011;64373;46.136;8.830;2023-11-18T04:21:09;0.17;;;0.00;;
75760;SDS011;64373;46.136;8.830;2023-11-18T04:23:38;0.22;;;0.10;;
75760;SDS011;64373;46.136;8.830;2023-11-18T04:26:05;0.38;;;0.20;;
75760;SDS011;64373;46.136;8.830;2023-11-18T04:28:31;0.20;;;0.20;;
75760;SDS011;64373;46.136;8.830;2023-11-18T04:30:56;0.38;;;0.30;;
75760;SDS011;64373;46.136;8.830;2023-11-18T04:33:22;0.22;;;0.10;;
75760;SDS011;64373;46.136;8.830;2023-11-18T04:35:49;0.00;;;0.00;;
75760;SDS011;64373;46.136;8.830;2023-11-18T04:38:16;0.20;;;0.08;;
75760;SDS011;64373;46.136;8.830;2023-11-18T04:40:42;0.10;;;0.10;;
75760;SDS011;64373;46.136;8.830;2023-11-18T04:43:10;0.08;;;0.08;;
75760;SDS011;64373;46.136;8.830;2023-11-18T04:45:36;0.00;;;0.00;;
75760;SDS011;64373;46.136;8.830;2023-11-18T04:48:02;0.30;;;0.10;;
75760;SDS011;64373;46.136;8.830;2023-11-18T04:50:29;0.20;;;0.00;;
75760;SDS011;64373;46.136;8.830;2023-11-18T04:52:56;0.00;;;0.00;;
75760;SDS011;64373;46.136;8.830;2023-11-18T04:55:22;0.40;;;0.10;;
75760;SDS011;64373;46.136;8.830;2023-11-18T04:57:47;0.10;;;0.03;;
75760;SDS011;64373;46.136;8.830;2023-11-18T05:00:13;0.10;;;0.10;;
75760;SDS011;64373;46.136;8.830;2023-11-18T05:02:42;0.15;;;0.00;;
75760;SDS011;64373;46.136;8.830;2023-11-18T05:05:12;0.08;;;0.00;;
75760;SDS011;64373;46.136;8.830;2023-11-18T05:07:40;0.20;;;0.10;;
75760;SDS011;64373;46.136;8.830;2023-11-18T05:10:06;0.00;;;0.00;;
75760;SDS011;64373;46.136;8.830;2023-11-18T05:12:35;0.38;;;0.20;;
75760;SDS011;64373;46.136;8.830;2023-11-18T05:15:02;0.00;;;0.00;;
75760;SDS011;64373;46.136;8.830;2023-11-18T05:20:04;0.00;;;0.00;;
75760;SDS011;64373;46.136;8.830;2023-11-18T05:22:33;0.10;;;0.10;;
75760;SDS011;64373;46.136;8.830;2023-11-18T05:25:01;0.10;;;0.10;;
75760;SDS011;64373;46.136;8.830;2023-11-18T05:27:29;0.10;;;0.10;;
75760;SDS011;64373;46.136;8.830;2023-11-18T05:29:56;3.28;;;0.28;;
75760;SDS011;64373;46.136;8.830;2023-11-18T05:32:26;0.13;;;0.05;;
75760;SDS011;64373;46.136;8.830;2023-11-18T05:34:52;0.20;;;0.10;;
75760;SDS011;64373;46.136;8.830;2023-11-18T05:37:19;0.10;;;0.10;;
75760;SDS011;64373;46.136;8.830;2023-11-18T05:39:45;0.40;;;0.10;;
75760;SDS011;64373;46.136;8.830;2023-11-18T05:42:11;0.10;;;0.10;;
75760;SDS011;64373;46.136;8.830;2023-11-18T05:44:37;0.10;;;0.10;;
75760;SDS011;64373;46.136;8.830;2023-11-18T05:47:07;0.10;;;0.10;;
75760;SDS011;64373;46.136;8.830;2023-11-18T05:49:35;0.20;;;0.10;;
75760;SDS011;64373;46.136;8.830;2023-11-18T05:52:01;0.05;;;0.00;;
75760;SDS011;64373;46.136;8.830;2023-11-18T05:54:26;0.32;;;0.10;;
75760;SDS011;64373;46.136;8.830;2023-11-18T05:56:52;0.00;;;0.00;;
75760;SDS011;64373;46.136;8.830;2023-11-18T05:59:18;0.17;;;0.10;;
75760;SDS011;64373;46.136;8.830;2023-11-18T06:01:44;0.22;;;0.10;;
75760;SDS011;64373;46.136;8.830;2023-11-18T06:04:12;0.32;;;0.10;;
75760;SDS011;64373;46.136;8.830;2023-11-18T06:06:38;0.95;;;0.00;;
75760;SDS011;64373;46.136;8.830;2023-11-18T06:09:04;0.00;;;0.00;;
75760;SDS011;64373;46.136;8.830;2023-11-18T06:11:30;0.10;;;0.00;;
75760;SDS011;64373;46.136;8.830;2023-11-18T06:13:57;0.20;;;0.00;;
75760;SDS011;64373;46.136;8.830;2023-11-18T06:16:23;0.28;;;0.00;;
75760;SDS011;64373;46.136;8.830;2023-11-18T06:18:50;0.00;;;0.00;;
75760;SDS011;64373;46.136;8.830;2023-11-18T06:21:21;0.60;;;0.20;;
75760;SDS011;64373;46.136;8.830;2023-11-18T06:23:55;0.10;;;0.10;;
75760;SDS011;64373;46.136;8.830;2023-11-18T06:26:22;0.08;;;0.05;;
75760;SDS011;64373;46.136;8.830;2023-11-18T06:28:52;0.00;;;0.00;;
75760;SDS011;64373;46.136;8.830;2023-11-18T06:31:19;0.03;;;0.03;;
75760;SDS011;64373;46.136;8.830;2023-11-18T06:33:45;0.90;;;0.00;;
75760;SDS011;64373;46.136;8.830;2023-11-18T06:38:47;0.43;;;0.00;;
75760;SDS011;64373;46.136;8.830;2023-11-18T06:41:17;0.35;;;0.13;;
75760;SDS011;64373;46.136;8.830;2023-11-18T06:43:44;0.10;;;0.10;;
75760;SDS011;64373;46.136;8.830;2023-11-18T06:46:19;0.43;;;0.20;;
75760;SDS011;64373;46.136;8.830;2023-11-18T06:48:48;0.10;;;0.10;;
75760;SDS011;64373;46.136;8.830;2023-11-18T06:51:15;1.05;;;0.45;;
75760;SDS011;64373;46.136;8.830;2023-11-18T06:53:41;0.43;;;0.00;;
75760;SDS011;64373;46.136;8.830;2023-11-18T06:56:07;0.55;;;0.10;;
75760;SDS011;64373;46.136;8.830;2023-11-18T06:58:33;0.80;;;0.10;;
75760;SDS011;64373;46.136;8.830;2023-11-18T07:00:59;0.20;;;0.10;;
75760;SDS011;64373;46.136;8.830;2023-11-18T07:03:24;0.65;;;0.10;;
75760;SDS011;64373;46.136;8.830;2023-11-18T07:05:51;0.10;;;0.00;;
75760;SDS011;64373;46.136;8.830;2023-11-18T07:08:16;0.10;;;0.10;;
75760;SDS011;64373;46.136;8.830;2023-11-18T07:10:42;0.80;;;0.20;;
75760;SDS011;64373;46.136;8.830;2023-11-18T07:13:07;0.17;;;0.10;;
75760;SDS011;64373;46.136;8.830;2023-11-18T07:15:34;0.82;;;0.10;;
75760;SDS011;64373;46.136;8.830;2023-11-18T07:18:01;0.40;;;0.20;;
75760;SDS011;64373;46.136;8.830;2023-11-18T07:20:27;0.10;;;0.10;;
75760;SDS011;64373;46.136;8.830;2023-11-18T07:22:52;0.20;;;0.10;;
75760;SDS011;64373;46.136;8.830;2023-11-18T07:25:19;0.10;;;0.00;;
75760;SDS011;64373;46.136;8.830;2023-11-18T07:27:45;0.22;;;0.10;;
75760;SDS011;64373;46.136;8.830;2023-11-18T07:30:11;0.10;;;0.00;;
75760;SDS011;64373;46.136;8.830;2023-11-18T07:32:36;0.20;;;0.10;;
75760;SDS011;64373;46.136;8.830;2023-11-18T07:35:03;0.00;;;0.00;;
75760;SDS011;64373;46.136;8.830;2023-11-18T07:37:33;0.00;;;0.00;;
75760;SDS011;64373;46.136;8.830;2023-11-18T07:39:59;0.55;;;0.10;;
75760;SDS011;64373;46.136;8.830;2023-11-18T07:42:26;0.10;;;0.10;;
75760;SDS011;64373;46.136;8.830;2023-11-18T07:44:51;0.10;;;0.00;;
75760;SDS011;64373;46.136;8.830;2023-11-18T07:47:17;0.10;;;0.00;;
75760;SDS011;64373;46.136;8.830;2023-11-18T07:49:44;0.00;;;0.00;;
75760;SDS011;64373;46.136;8.830;2023-11-18T07:52:10;0.65;;;0.20;;
75760;SDS011;64373;46.136;8.830;2023-11-18T07:54:36;0.00;;;0.00;;
75760;SDS011;64373;46.136;8.830;2023-11-18T07:57:03;0.55;;;0.10;;
75760;SDS011;64373;46.136;8.830;2023-11-18T07:59:35;0.25;;;0.10;;
75760;SDS011;64373;46.136;8.830;2023-11-18T08:02:01;0.25;;;0.20;;
75760;SDS011;64373;46.136;8.830;2023-11-18T08:04:28;0.73;;;0.20;;
75760;SDS011;64373;46.136;8.830;2023-11-18T08:06:54;0.60;;;0.20;;
75760;SDS011;64373;46.136;8.830;2023-11-18T08:09:20;0.60;;;0.28;;
75760;SDS011;64373;46.136;8.830;2023-11-18T08:11:50;0.30;;;0.10;;
75760;SDS011;64373;46.136;8.830;2023-11-18T08:14:16;0.52;;;0.25;;
75760;SDS011;64373;46.136;8.830;2023-11-18T08:16:42;0.40;;;0.30;;
75760;SDS011;64373;46.136;8.830;2023-11-18T08:19:07;0.20;;;0.20;;
75760;SDS011;64373;46.136;8.830;2023-11-18T08:21:33;0.28;;;0.10;;
75760;SDS011;64373;46.136;8.830;2023-11-18T08:24:00;0.25;;;0.10;;
75760;SDS011;64373;46.136;8.830;2023-11-18T08:26:26;0.30;;;0.10;;
75760;SDS011;64373;46.136;8.830;2023-11-18T08:28:52;0.98;;;0.43;;
75760;SDS011;64373;46.136;8.830;2023-11-18T08:31:17;0.57;;;0.47;;
75760;SDS011;64373;46.136;8.830;2023-11-18T08:33:43;1.15;;;0.32;;
75760;SDS011;64373;46.136;8.830;2023-11-18T08:36:10;0.20;;;0.20;;
75760;SDS011;64373;46.136;8.830;2023-11-18T08:38:37;0.60;;;0.25;;
75760;SDS011;64373;46.136;8.830;2023-11-18T08:41:03;0.75;;;0.30;;
75760;SDS011;64373;46.136;8.830;2023-11-18T08:43:30;0.30;;;0.30;;
75760;SDS011;64373;46.136;8.830;2023-11-18T08:45:56;0.38;;;0.20;;
75760;SDS011;64373;46.136;8.830;2023-11-18T08:48:22;0.38;;;0.13;;
75760;SDS011;64373;46.136;8.830;2023-11-18T08:50:48;0.40;;;0.20;;
75760;SDS011;64373;46.136;8.830;2023-11-18T08:53:14;0.55;;;0.10;;
75760;SDS011;64373;46.136;8.830;2023-11-18T08:55:43;0.57;;;0.25;;
75760;SDS011;64373;46.136;8.830;2023-11-18T08:58:21;1.30;;;0.47;;
75760;SDS011;64373;46.136;8.830;2023-11-18T09:00:48;0.50;;;0.38;;
75760;SDS011;64373;46.136;8.830;2023-11-18T09:03:25;0.93;;;0.52;;
75760;SDS011;64373;46.136;8.830;2023-11-18T09:09:07;0.73;;;0.30;;
75760;SDS011;64373;46.136;8.830;2023-11-18T09:11:36;0.25;;;0.10;;
75760;SDS011;64373;46.136;8.830;2023-11-18T09:14:04;0.30;;;0.10;;
75760;SDS011;64373;46.136;8.830;2023-11-18T09:16:32;0.10;;;0.10;;
75760;SDS011;64373;46.136;8.830;2023-11-18T09:19:03;0.17;;;0.10;;
75760;SDS011;64373;46.136;8.830;2023-11-18T09:21:31;0.10;;;0.10;;
75760;SDS011;64373;46.136;8.830;2023-11-18T09:24:00;0.55;;;0.40;;
75760;SDS011;64373;46.136;8.830;2023-11-18T09:26:30;0.60;;;0.50;;
75760;SDS011;64373;46.136;8.830;2023-11-18T09:28:56;0.20;;;0.20;;
75760;SDS011;64373;46.136;8.830;2023-11-18T09:31:22;0.68;;;0.20;;
75760;SDS011;64373;46.136;8.830;2023-11-18T09:33:48;0.30;;;0.20;;
75760;SDS011;64373;46.136;8.830;2023-11-18T09:36:22;0.20;;;0.10;;
75760;SDS011;64373;46.136;8.830;2023-11-18T09:38:48;0.17;;;0.10;;
75760;SDS011;64373;46.136;8.830;2023-11-18T09:41:15;0.32;;;0.20;;
75760;SDS011;64373;46.136;8.830;2023-11-18T09:43:44;0.40;;;0.10;;
75760;SDS011;64373;46.136;8.830;2023-11-18T09:46:24;0.43;;;0.17;;
75760;SDS011;64373;46.136;8.830;2023-11-18T09:51:39;0.28;;;0.20;;
75760;SDS011;64373;46.136;8.830;2023-11-18T09:54:18;0.20;;;0.20;;
75760;SDS011;64373;46.136;8.830;2023-11-18T09:59:25;0.20;;;0.20;;
75760;SDS011;64373;46.136;8.830;2023-11-18T10:02:04;0.22;;;0.00;;
75760;SDS011;64373;46.136;8.830;2023-11-18T10:04:30;0.08;;;0.08;;
75760;SDS011;64373;46.136;8.830;2023-11-18T10:06:56;0.20;;;0.10;;
75760;SDS011;64373;46.136;8.830;2023-11-18T10:09:31;0.15;;;0.10;;
75760;SDS011;64373;46.136;8.830;2023-11-18T10:12:02;0.50;;;0.22;;
75760;SDS011;64373;46.136;8.830;2023-11-18T10:14:32;0.63;;;0.40;;
75760;SDS011;64373;46.136;8.830;2023-11-18T10:16:59;0.50;;;0.40;;
75760;SDS011;64373;46.136;8.830;2023-11-18T10:19:48;0.40;;;0.20;;
75760;SDS011;64373;46.136;8.830;2023-11-18T10:22:22;0.20;;;0.20;;
75760;SDS011;64373;46.136;8.830;2023-11-18T10:24:56;0.20;;;0.20;;
75760;SDS011;64373;46.136;8.830;2023-11-18T10:29:51;0.38;;;0.10;;
75760;SDS011;64373;46.136;8.830;2023-11-18T10:32:21;0.08;;;0.08;;
75760;SDS011;64373;46.136;8.830;2023-11-18T10:34:50;0.20;;;0.10;;
75760;SDS011;64373;46.136;8.830;2023-11-18T10:37:16;0.10;;;0.10;;
75760;SDS011;64373;46.136;8.830;2023-11-18T10:39:46;0.10;;;0.10;;
75760;SDS011;64373;46.136;8.830;2023-11-18T10:42:13;0.10;;;0.10;;
75760;SDS011;64373;46.136;8.830;2023-11-18T10:44:53;0.10;;;0.10;;
75760;SDS011;64373;46.136;8.830;2023-11-18T10:47:20;0.20;;;0.10;;
75760;SDS011;64373;46.136;8.830;2023-11-18T10:49:50;0.20;;;0.20;;
75760;SDS011;64373;46.136;8.830;2023-11-18T10:52:16;0.15;;;0.10;;
75760;SDS011;64373;46.136;8.830;2023-11-18T10:55:15;0.20;;;0.10;;
75760;SDS011;64373;46.136;8.830;2023-11-18T10:57:36;0.40;;;0.30;;
75760;SDS011;64373;46.136;8.830;2023-11-18T11:00:04;0.45;;;0.20;;
75760;SDS011;64373;46.136;8.830;2023-11-18T11:02:44;0.40;;;0.35;;
75760;SDS011;64373;46.136;8.830;2023-11-18T11:05:12;0.50;;;0.50;;
75760;SDS011;64373;46.136;8.830;2023-11-18T11:08:01;0.40;;;0.20;;
75760;SDS011;64373;46.136;8.830;2023-11-18T11:10:30;1.20;;;0.50;;
75760;SDS011;64373;46.136;8.830;2023-11-18T11:12:56;0.50;;;0.30;;
75760;SDS011;64373;46.136;8.830;2023-11-18T11:15:30;0.60;;;0.47;;
75760;SDS011;64373;46.136;8.830;2023-11-18T11:18:06;0.80;;;0.63;;
75760;SDS011;64373;46.136;8.830;2023-11-18T11:20:47;0.70;;;0.50;;
75760;SDS011;64373;46.136;8.830;2023-11-18T11:23:21;0.60;;;0.43;;
75760;SDS011;64373;46.136;8.830;2023-11-18T11:33:39;0.22;;;0.20;;
75760;SDS011;64373;46.136;8.830;2023-11-18T11:36:11;0.40;;;0.13;;
75760;SDS011;64373;46.136;8.830;2023-11-18T11:38:37;0.10;;;0.10;;
75760;SDS011;64373;46.136;8.830;2023-11-18T11:41:04;0.38;;;0.15;;
75760;SDS011;64373;46.136;8.830;2023-11-18T11:43:30;0.10;;;0.10;;
75760;SDS011;64373;46.136;8.830;2023-11-18T11:45:59;0.10;;;0.10;;
75760;SDS011;64373;46.136;8.830;2023-11-18T11:48:32;0.10;;;0.10;;
75760;SDS011;64373;46.136;8.830;2023-11-18T11:51:10;0.13;;;0.10;;
75760;SDS011;64373;46.136;8.830;2023-11-18T11:53:47;0.10;;;0.10;;
75760;SDS011;64373;46.136;8.830;2023-11-18T11:56:20;0.10;;;0.03;;
75760;SDS011;64373;46.136;8.830;2023-11-18T11:58:46;0.22;;;0.10;;
75760;SDS011;64373;46.136;8.830;2023-11-18T12:03:58;0.00;;;0.00;;
75760;SDS011;64373;46.136;8.830;2023-11-18T12:06:32;0.10;;;0.00;;
75760;SDS011;64373;46.136;8.830;2023-11-18T12:09:03;0.20;;;0.08;;
75760;SDS011;64373;46.136;8.830;2023-11-18T12:11:35;0.08;;;0.08;;
75760;SDS011;64373;46.136;8.830;2023-11-18T12:14:08;0.00;;;0.00;;
75760;SDS011;64373;46.136;8.830;2023-11-18T12:17:04;0.08;;;0.08;;
75760;SDS011;64373;46.136;8.830;2023-11-18T12:19:46;0.00;;;0.00;;
75760;SDS011;64373;46.136;8.830;2023-11-18T12:22:20;0.00;;;0.00;;
75760;SDS011;64373;46.136;8.830;2023-11-18T12:30:04;0.00;;;0.00;;
75760;SDS011;64373;46.136;8.830;2023-11-18T12:38:26;0.00;;;0.00;;
75760;SDS011;64373;46.136;8.830;2023-11-18T12:41:10;0.30;;;0.00;;
75760;SDS011;64373;46.136;8.830;2023-11-18T12:46:47;0.00;;;0.00;;
75760;SDS011;64373;46.136;8.830;2023-11-18T12:49:37;0.10;;;0.10;;
75760;SDS011;64373;46.136;8.830;2023-11-18T12:52:06;0.08;;;0.00;;
75760;SDS011;64373;46.136;8.830;2023-11-18T12:54:33;0.70;;;0.10;;
75760;SDS011;64373;46.136;8.830;2023-11-18T12:57:02;0.15;;;0.13;;
75760;SDS011;64373;46.136;8.830;2023-11-18T12:59:32;0.60;;;0.00;;
75760;SDS011;64373;46.136;8.830;2023-11-18T13:02:01;0.00;;;0.00;;
75760;SDS011;64373;46.136;8.830;2023-11-18T13:04:29;0.00;;;0.00;;
75760;SDS011;64373;46.136;8.830;2023-11-18T13:06:56;0.10;;;0.00;;
75760;SDS011;64373;46.136;8.830;2023-11-18T13:09:23;0.10;;;0.00;;
75760;SDS011;64373;46.136;8.830;2023-11-18T13:11:56;0.10;;;0.00;;
75760;SDS011;64373;46.136;8.830;2023-11-18T13:14:23;0.00;;;0.00;;
75760;SDS011;64373;46.136;8.830;2023-11-18T13:16:51;0.03;;;0.00;;
75760;SDS011;64373;46.136;8.830;2023-11-18T13:19:26;0.03;;;0.03;;
75760;SDS011;64373;46.136;8.830;2023-11-18T13:21:56;0.00;;;0.00;;
75760;SDS011;64373;46.136;8.830;2023-11-18T13:24:38;0.00;;;0.00;;
75760;SDS011;64373;46.136;8.830;2023-11-18T13:27:05;0.00;;;0.00;;
75760;SDS011;64373;46.136;8.830;2023-11-18T13:29:33;0.00;;;0.00;;
75760;SDS011;64373;46.136;8.830;2023-11-18T13:32:00;0.03;;;0.03;;
75760;SDS011;64373;46.136;8.830;2023-11-18T13:34:33;0.00;;;0.00;;
75760;SDS011;64373;46.136;8.830;2023-11-18T13:37:05;0.00;;;0.00;;
75760;SDS011;64373;46.136;8.830;2023-11-18T13:39:32;0.00;;;0.00;;
75760;SDS011;64373;46.136;8.830;2023-11-18T13:41:58;0.30;;;0.00;;
75760;SDS011;64373;46.136;8.830;2023-11-18T13:44:33;0.00;;;0.00;;
75760;SDS011;64373;46.136;8.830;2023-11-18T13:47:06;0.10;;;0.05;;
75760;SDS011;64373;46.136;8.830;2023-11-18T13:49:33;0.00;;;0.00;;
75760;SDS011;64373;46.136;8.830;2023-11-18T13:52:02;0.00;;;0.00;;
75760;SDS011;64373;46.136;8.830;2023-11-18T13:54:28;0.00;;;0.00;;
75760;SDS011;64373;46.136;8.830;2023-11-18T13:56:55;0.10;;;0.00;;
75760;SDS011;64373;46.136;8.830;2023-11-18T13:59:24;0.03;;;0.00;;
75760;SDS011;64373;46.136;8.830;2023-11-18T14:01:54;0.10;;;0.00;;
75760;SDS011;64373;46.136;8.830;2023-11-18T14:04:24;0.03;;;0.00;;
75760;SDS011;64373;46.136;8.830;2023-11-18T14:06:51;0.00;;;0.00;;
75760;SDS011;64373;46.136;8.830;2023-11-18T14:09:18;0.00;;;0.00;;
75760;SDS011;64373;46.136;8.830;2023-11-18T14:11:46;0.00;;;0.00;;
75760;SDS011;64373;46.136;8.830;2023-11-18T14:14:13;0.00;;;0.00;;
75760;SDS011;64373;46.136;8.830;2023-11-18T14:16:39;0.00;;;0.00;;
75760;SDS011;64373;46.136;8.830;2023-11-18T14:19:05;0.00;;;0.00;;
75760;SDS011;64373;46.136;8.830;2023-11-18T14:21:31;0.00;;;0.00;;
75760;SDS011;64373;46.136;8.830;2023-11-18T14:23:57;0.00;;;0.00;;
75760;SDS011;64373;46.136;8.830;2023-11-18T14:26:27;0.00;;;0.00;;
75760;SDS011;64373;46.136;8.830;2023-11-18T14:28:54;0.00;;;0.00;;
75760;SDS011;64373;46.136;8.830;2023-11-18T14:31:20;0.00;;;0.00;;
75760;SDS011;64373;46.136;8.830;2023-11-18T14:33:47;0.00;;;0.00;;
75760;SDS011;64373;46.136;8.830;2023-11-18T14:36:13;0.00;;;0.00;;
75760;SDS011;64373;46.136;8.830;2023-11-18T14:38:40;0.10;;;0.00;;
75760;SDS011;64373;46.136;8.830;2023-11-18T14:41:05;0.00;;;0.00;;
75760;SDS011;64373;46.136;8.830;2023-11-18T14:43:33;0.20;;;0.10;;
75760;SDS011;64373;46.136;8.830;2023-11-18T14:45:59;0.00;;;0.00;;
75760;SDS011;64373;46.136;8.830;2023-11-18T14:48:25;0.15;;;0.10;;
75760;SDS011;64373;46.136;8.830;2023-11-18T14:50:51;0.00;;;0.00;;
75760;SDS011;64373;46.136;8.830;2023-11-18T14:53:16;0.03;;;0.00;;
75760;SDS011;64373;46.136;8.830;2023-11-18T14:55:42;0.00;;;0.00;;
75760;SDS011;64373;46.136;8.830;2023-11-18T14:58:08;0.00;;;0.00;;
75760;SDS011;64373;46.136;8.830;2023-11-18T15:00:37;0.17;;;0.10;;
75760;SDS011;64373;46.136;8.830;2023-11-18T15:03:02;0.20;;;0.10;;
75760;SDS011;64373;46.136;8.830;2023-11-18T15:05:28;0.47;;;0.08;;
75760;SDS011;64373;46.136;8.830;2023-11-18T15:07:56;0.10;;;0.08;;
75760;SDS011;64373;46.136;8.830;2023-11-18T15:10:24;0.17;;;0.10;;
75760;SDS011;64373;46.136;8.830;2023-11-18T15:12:54;0.10;;;0.10;;
75760;SDS011;64373;46.136;8.830;2023-11-18T15:15:27;0.10;;;0.10;;
75760;SDS011;64373;46.136;8.830;2023-11-18T15:17:57;0.08;;;0.00;;
75760;SDS011;64373;46.136;8.830;2023-11-18T15:20:24;0.10;;;0.05;;
75760;SDS011;64373;46.136;8.830;2023-11-18T15:22:50;0.00;;;0.00;;
75760;SDS011;64373;46.136;8.830;2023-11-18T15:25:16;0.40;;;0.20;;
75760;SDS011;64373;46.136;8.830;2023-11-18T15:27:43;0.50;;;0.38;;
75760;SDS011;64373;46.136;8.830;2023-11-18T15:30:11;2.00;;;0.57;;
75760;SDS011;64373;46.136;8.830;2023-11-18T15:32:41;1.50;;;0.70;;
75760;SDS011;64373;46.136;8.830;2023-11-18T15:35:07;0.82;;;0.40;;
75760;SDS011;64373;46.136;8.830;2023-11-18T15:37:37;1.10;;;0.52;;
75760;SDS011;64373;46.136;8.830;2023-11-18T15:40:04;0.93;;;0.43;;
75760;SDS011;64373;46.136;8.830;2023-11-18T15:42:38;0.10;;;0.10;;
75760;SDS011;64373;46.136;8.830;2023-11-18T15:45:05;0.20;;;0.10;;